KSEA/SEA METAR and TAF weather

Enter ICAO airport designator
Station Type Date Time Source
KSEA METAR 2019/04/25 09:53 UTC NOAA

KSEA 250953Z 03008KT 10SM CLR 08/02 A3024 RMK AO2 SLP248 T00830022


Station Type Date Time Source
KSEA Decoded METAR 2019/04/25 09:53 UTC NOAA

SEATTLE-TACOMA INTERNATIONAL AIRPORT , WA, United States (KSEA) 47-27N 122-19W 136M
Apr 25, 2019 - 05:53 AM EDT / 2019.04.25 0953 UTC
Wind: from the NNE (030 degrees) at 9 MPH (8 KT):0
Visibility: 10 mile(s):0
Sky conditions: clear
Temperature: 46.9 F (8.3 C)
Dew Point: 36.0 F (2.2 C)
Relative Humidity: 65%
Pressure (altimeter): 30.24 in. Hg (1024 hPa)
ob: KSEA 250953Z 03008KT 10SM CLR 08/02 A3024 RMK AO2 SLP248 T00830022
cycle: 10

Station Type Date Time Source
KSEA TAF 2019/04/25 08:03 UTC NOAA

TAF
AMD KSEA 250801Z 2508/2612 02009KT P6SM SCT200
FM252000 34010KT P6SM SCT120 BKN200
FM260400 01007KT P6SM BKN100 OVC200

Example: see airport list